createdAt,value
2023-04-02T00:01:03.159Z,16.60
2023-04-02T00:03:46.521Z,17.47
2023-04-02T00:06:30.646Z,16.80
2023-04-02T00:09:19.505Z,15.75
2023-04-02T00:11:50.095Z,13.82
2023-04-02T00:14:38.533Z,16.02
2023-04-02T00:17:08.062Z,11.67
2023-04-02T00:19:58.865Z,14.80
2023-04-02T00:22:30.349Z,13.98
2023-04-02T00:25:00.908Z,12.40
2023-04-02T00:27:30.942Z,14.98
2023-04-02T00:30:00.065Z,11.17
2023-04-02T00:32:33.582Z,14.85
2023-04-02T00:35:01.946Z,12.02
2023-04-02T00:37:39.499Z,12.43
2023-04-02T00:40:20.237Z,16.45
2023-04-02T00:42:50.505Z,12.50
2023-04-02T00:45:34.140Z,15.10
2023-04-02T00:48:33.879Z,11.73
2023-04-02T00:51:23.601Z,10.88
2023-04-02T00:53:55.387Z,11.27
2023-04-02T00:56:31.814Z,13.53
2023-04-02T00:59:00.288Z,11.10
2023-04-02T01:01:37.122Z,12.55
2023-04-02T01:04:06.222Z,16.42
2023-04-02T01:06:39.143Z,12.60
2023-04-02T01:09:24.918Z,15.97
2023-04-02T01:12:37.653Z,14.75
2023-04-02T01:15:11.562Z,10.45
2023-04-02T01:18:18.915Z,13.93
2023-04-02T01:20:52.732Z,14.00
2023-04-02T01:23:47.448Z,15.50
2023-04-02T01:26:32.194Z,14.15
2023-04-02T01:29:03.129Z,12.35
2023-04-02T01:31:34.892Z,14.20
2023-04-02T01:34:06.913Z,13.13
2023-04-02T01:36:41.938Z,14.87
2023-04-02T01:39:30.780Z,12.68
2023-04-02T01:42:32.499Z,11.98
2023-04-02T01:45:12.571Z,13.80
2023-04-02T01:47:42.174Z,14.10
2023-04-02T01:50:32.917Z,11.17
2023-04-02T01:53:04.431Z,10.68
2023-04-02T01:55:58.093Z,12.00
2023-04-02T01:58:32.255Z,14.38
2023-04-02T02:01:18.977Z,11.20
2023-04-02T02:03:52.324Z,14.87
2023-04-02T02:06:21.107Z,9.60
2023-04-02T02:09:04.228Z,12.27
2023-04-02T02:11:34.662Z,10.57
2023-04-02T02:14:13.798Z,14.45
2023-04-02T02:16:42.652Z,10.13
2023-04-02T02:19:34.723Z,12.95
2023-04-02T02:22:21.938Z,12.57
2023-04-02T02:24:50.497Z,11.57
2023-04-02T02:27:24.066Z,12.02
2023-04-02T02:30:08.018Z,11.30
2023-04-02T02:32:44.160Z,13.35
2023-04-02T02:35:20.303Z,15.90
2023-04-02T02:38:12.467Z,11.93
2023-04-02T02:40:47.418Z,14.32
2023-04-02T02:43:18.072Z,14.90
2023-04-02T02:45:50.675Z,16.77
2023-04-02T02:48:22.263Z,13.23
2023-04-02T02:50:52.148Z,16.35
2023-04-02T02:53:25.919Z,15.70
2023-04-02T02:56:00.353Z,12.07
2023-04-02T02:58:35.223Z,15.57
2023-04-02T03:01:19.217Z,10.40
2023-04-02T03:03:53.242Z,12.45
2023-04-02T03:06:22.174Z,12.07
2023-04-02T03:09:16.439Z,10.50
2023-04-02T03:11:52.660Z,12.70
2023-04-02T03:14:38.731Z,17.35
2023-04-02T03:17:45.158Z,16.63
2023-04-02T03:20:47.750Z,13.55
2023-04-02T03:23:24.996Z,10.60
2023-04-02T03:26:18.710Z,13.70
2023-04-02T03:29:05.397Z,13.45
2023-04-02T03:31:38.992Z,15.35
2023-04-02T03:34:33.282Z,15.95
2023-04-02T03:37:06.814Z,12.80
2023-04-02T03:39:41.558Z,13.95
2023-04-02T03:42:27.604Z,11.68
2023-04-02T03:45:11.594Z,14.70
2023-04-02T03:48:07.628Z,17.10
2023-04-02T03:50:40.952Z,12.90
2023-04-02T03:53:10.052Z,15.98
2023-04-02T03:55:40.395Z,12.77
2023-04-02T03:58:30.218Z,13.43
2023-04-02T04:01:17.813Z,12.85
2023-04-02T04:03:54.665Z,11.70
2023-04-02T04:06:37.140Z,14.10
2023-04-02T04:09:22.608Z,15.38
2023-04-02T04:11:57.668Z,11.30
2023-04-02T04:14:41.896Z,15.32
2023-04-02T04:17:31.082Z,11.83
2023-04-02T04:20:22.390Z,17.40
2023-04-02T04:22:56.876Z,12.73
2023-04-02T04:25:30.537Z,16.52
2023-04-02T04:28:21.780Z,15.18
2023-04-02T04:31:25.780Z,11.33
2023-04-02T04:34:04.279Z,11.75
2023-04-02T04:36:48.499Z,15.38
2023-04-02T04:39:41.361Z,16.23
2023-04-02T04:42:39.979Z,13.82
2023-04-02T04:45:12.591Z,13.00
2023-04-02T04:47:51.218Z,16.92
2023-04-02T04:50:48.150Z,17.33
2023-04-02T04:53:21.602Z,17.58
2023-04-02T04:56:12.496Z,17.60
2023-04-02T04:58:59.452Z,17.23
2023-04-02T05:01:32.903Z,19.02
2023-04-02T05:04:17.373Z,16.45
2023-04-02T05:06:58.734Z,14.40
2023-04-02T05:10:07.962Z,17.58
2023-04-02T05:13:04.629Z,18.50
2023-04-02T05:15:42.602Z,13.02
2023-04-02T05:18:23.866Z,13.98
2023-04-02T05:20:52.684Z,15.73
2023-04-02T05:23:36.543Z,11.35
2023-04-02T05:26:12.535Z,14.70
2023-04-02T05:29:13.857Z,20.58
2023-04-02T05:31:56.280Z,13.48
2023-04-02T05:34:38.980Z,14.95
2023-04-02T05:37:31.289Z,12.63
2023-04-02T05:40:15.828Z,14.10
2023-04-02T05:42:50.351Z,18.38
2023-04-02T05:45:35.282Z,20.17
2023-04-02T05:48:27.412Z,11.50
2023-04-02T05:50:59.605Z,12.85
2023-04-02T05:53:38.432Z,13.17
2023-04-02T05:56:15.252Z,13.85
2023-04-02T05:58:55.803Z,10.65
2023-04-02T06:01:57.781Z,13.00
2023-04-02T06:04:57.238Z,17.45
2023-04-02T06:07:53.944Z,12.70
2023-04-02T06:10:27.216Z,14.85
2023-04-02T06:13:06.339Z,14.65
2023-04-02T06:15:39.941Z,21.33
2023-04-02T06:18:31.960Z,17.13
2023-04-02T06:21:01.118Z,16.23
2023-04-02T06:23:36.968Z,17.77
2023-04-02T06:26:07.317Z,13.05
2023-04-02T06:29:03.364Z,14.65
2023-04-02T06:31:47.412Z,11.18
2023-04-02T06:34:21.256Z,11.20
2023-04-02T06:37:01.196Z,11.40
2023-04-02T06:39:31.136Z,15.25
2023-04-02T06:42:11.680Z,12.98
2023-04-02T06:44:58.451Z,13.23
2023-04-02T06:47:51.915Z,12.23
2023-04-02T06:51:14.629Z,13.82
2023-04-02T06:53:47.003Z,13.00
2023-04-02T06:56:22.697Z,11.23
2023-04-02T06:58:51.670Z,10.40
2023-04-02T07:01:28.447Z,12.33
2023-04-02T07:03:57.591Z,10.52
2023-04-02T07:06:34.361Z,12.30
2023-04-02T07:09:04.899Z,11.23
2023-04-02T07:11:34.298Z,14.63
2023-04-02T07:14:05.979Z,11.33
2023-04-02T07:16:37.207Z,13.13
2023-04-02T07:19:06.707Z,13.18
2023-04-02T07:21:37.108Z,11.68
2023-04-02T07:24:07.333Z,12.68
2023-04-02T07:26:35.554Z,11.23
2023-04-02T07:29:03.693Z,12.23
2023-04-02T07:31:31.966Z,9.85
2023-04-02T07:34:01.450Z,8.38
2023-04-02T07:36:31.144Z,12.48
2023-04-02T07:39:02.814Z,10.27
2023-04-02T07:41:31.526Z,11.13
2023-04-02T07:43:59.429Z,13.20
2023-04-02T07:46:27.897Z,12.52
2023-04-02T07:48:55.891Z,10.57
2023-04-02T07:51:26.507Z,11.37
2023-04-02T07:53:57.959Z,10.07
2023-04-02T07:56:27.898Z,11.02
2023-04-02T07:58:56.187Z,10.48
2023-04-02T08:01:26.830Z,10.43
2023-04-02T08:03:56.537Z,10.70
2023-04-02T08:06:25.379Z,11.63
2023-04-02T08:08:54.050Z,11.60
2023-04-02T08:11:22.002Z,11.32
2023-04-02T08:13:50.246Z,10.25
2023-04-02T08:16:18.324Z,8.60
2023-04-02T08:18:47.961Z,11.85
2023-04-02T08:21:16.748Z,12.68
2023-04-02T08:23:45.497Z,12.23
2023-04-02T08:26:19.013Z,12.13
2023-04-02T08:28:47.522Z,10.17
2023-04-02T08:31:15.362Z,10.98
2023-04-02T08:33:43.291Z,16.23
2023-04-02T08:36:19.387Z,11.60
2023-04-02T08:38:47.596Z,13.63
2023-04-02T08:41:28.350Z,13.23
2023-04-02T08:44:07.544Z,10.23
2023-04-02T08:46:52.620Z,8.55
2023-04-02T08:49:36.793Z,7.57
2023-04-02T08:52:05.760Z,6.85
2023-04-02T08:54:43.949Z,8.43
2023-04-02T08:57:23.993Z,9.05
2023-04-02T09:00:07.652Z,10.63
2023-04-02T09:02:47.718Z,9.25
2023-04-02T09:05:25.833Z,10.95
2023-04-02T09:07:57.320Z,10.10
2023-04-02T09:10:42.042Z,11.02
2023-04-02T09:13:20.643Z,7.53
2023-04-02T09:15:49.561Z,10.20
2023-04-02T09:18:19.499Z,6.35
2023-04-02T09:20:49.862Z,11.27
2023-04-02T09:23:26.421Z,9.32
2023-04-02T09:26:04.050Z,11.25
2023-04-02T09:28:32.472Z,7.40
2023-04-02T09:31:21.640Z,8.15
2023-04-02T09:33:52.003Z,8.47
2023-04-02T09:36:36.303Z,10.50
2023-04-02T09:39:17.448Z,9.20
2023-04-02T09:41:58.789Z,8.80
2023-04-02T09:44:33.009Z,10.60
2023-04-02T09:47:23.880Z,9.50
2023-04-02T09:49:52.985Z,10.82
2023-04-02T09:52:31.298Z,7.88
2023-04-02T09:55:31.416Z,8.15
2023-04-02T09:58:16.648Z,8.95
2023-04-02T10:00:54.626Z,9.80
2023-04-02T10:03:26.678Z,10.68
2023-04-02T10:06:13.260Z,10.70
2023-04-02T10:08:44.050Z,11.48
2023-04-02T10:11:17.898Z,10.27
2023-04-02T10:14:06.432Z,13.03
2023-04-02T10:16:56.976Z,9.98
2023-04-02T10:19:41.941Z,13.30
2023-04-02T10:22:22.023Z,12.98
2023-04-02T10:24:51.819Z,8.25
2023-04-02T10:27:31.586Z,13.63
2023-04-02T10:30:15.191Z,10.57
2023-04-02T10:33:01.015Z,12.45
2023-04-02T10:35:58.762Z,10.73
2023-04-02T10:38:56.374Z,10.65
2023-04-02T10:41:27.582Z,8.53
2023-04-02T10:44:19.965Z,8.95
2023-04-02T10:47:14.320Z,9.73
2023-04-02T10:49:48.943Z,12.85
2023-04-02T10:52:31.414Z,11.77
2023-04-02T10:55:06.979Z,9.57
2023-04-02T10:57:42.031Z,10.82
2023-04-02T11:00:16.430Z,10.45
2023-04-02T11:02:53.066Z,10.57
2023-04-02T11:05:44.683Z,9.82
2023-04-02T11:08:52.904Z,14.27
2023-04-02T11:11:28.050Z,15.95
2023-04-02T11:13:58.535Z,12.55
2023-04-02T11:16:27.895Z,12.88
2023-04-02T11:19:17.129Z,15.30
2023-04-02T11:21:58.813Z,10.93
2023-04-02T11:24:34.546Z,10.60
2023-04-02T11:27:25.850Z,11.85
2023-04-02T11:30:23.345Z,15.88
2023-04-02T11:32:51.650Z,12.90
2023-04-02T11:35:31.808Z,9.53
2023-04-02T11:38:23.483Z,14.88
2023-04-02T11:40:53.983Z,12.18
2023-04-02T11:43:33.978Z,14.52
2023-04-02T11:46:17.177Z,11.85
2023-04-02T11:48:45.845Z,11.00
2023-04-02T11:51:37.013Z,12.23
2023-04-02T11:54:05.583Z,13.45
2023-04-02T11:56:48.617Z,14.45
2023-04-02T11:59:56.033Z,13.15
2023-04-02T12:02:41.695Z,11.37
2023-04-02T12:05:23.448Z,8.80
2023-04-02T12:08:15.333Z,7.40
2023-04-02T12:10:55.258Z,13.73
2023-04-02T12:13:50.817Z,11.77
2023-04-02T12:16:20.136Z,9.97
2023-04-02T12:18:54.357Z,11.13
2023-04-02T12:21:26.550Z,10.43
2023-04-02T12:23:58.275Z,8.65
2023-04-02T12:26:37.924Z,9.88
2023-04-02T12:29:16.969Z,8.83
2023-04-02T12:31:48.257Z,12.20
2023-04-02T12:34:19.166Z,12.60
2023-04-02T12:37:05.361Z,11.05
2023-04-02T12:39:35.088Z,11.40
2023-04-02T12:42:03.595Z,10.27
2023-04-02T12:44:32.471Z,10.82
2023-04-02T12:47:00.521Z,10.07
2023-04-02T12:49:40.589Z,12.50
2023-04-02T12:52:15.226Z,13.70
2023-04-02T12:54:49.783Z,11.50
2023-04-02T12:57:26.706Z,13.20
2023-04-02T12:59:56.839Z,12.00
2023-04-02T13:02:30.606Z,10.48
2023-04-02T13:05:01.825Z,11.25
2023-04-02T13:07:33.565Z,10.17
2023-04-02T13:10:27.048Z,10.77
2023-04-02T13:13:03.146Z,11.07
2023-04-02T13:15:34.723Z,11.00
2023-04-02T13:18:13.311Z,7.78
2023-04-02T13:20:42.861Z,9.57
2023-04-02T13:23:32.650Z,10.77
2023-04-02T13:26:14.508Z,11.00
2023-04-02T13:28:42.586Z,11.15
2023-04-02T13:31:19.541Z,10.80
2023-04-02T13:33:47.789Z,9.93
2023-04-02T13:36:16.204Z,8.45
2023-04-02T13:38:44.346Z,14.77
2023-04-02T13:41:28.500Z,9.15
2023-04-02T13:44:00.910Z,10.55
2023-04-02T13:46:32.215Z,16.33
2023-04-02T13:49:01.000Z,10.80
2023-04-02T13:51:37.818Z,10.57
2023-04-02T13:54:14.265Z,10.13
2023-04-02T13:56:42.508Z,13.90
2023-04-02T13:59:11.271Z,11.07
2023-04-02T14:01:40.652Z,12.07
2023-04-02T14:04:09.921Z,13.10
2023-04-02T14:06:59.191Z,13.43
2023-04-02T14:10:06.853Z,7.68
2023-04-02T14:13:05.824Z,9.87
2023-04-02T14:15:47.188Z,13.55
2023-04-02T14:18:29.454Z,10.95
2023-04-02T14:21:12.487Z,9.02
2023-04-02T14:23:52.405Z,12.63
2023-04-02T14:26:53.562Z,11.27
2023-04-02T14:29:32.843Z,17.02
2023-04-02T14:32:04.331Z,14.15
2023-04-02T14:34:55.143Z,13.35
2023-04-02T14:37:39.926Z,11.60
2023-04-02T14:40:26.042Z,13.47
2023-04-02T14:43:07.953Z,13.95
2023-04-02T14:45:47.843Z,13.23
2023-04-02T14:48:38.619Z,12.40
2023-04-02T14:51:17.704Z,13.02
2023-04-02T14:54:04.143Z,10.40
2023-04-02T14:56:39.683Z,12.07
2023-04-02T14:59:36.110Z,16.33
2023-04-02T15:02:27.049Z,12.82
2023-04-02T15:05:07.025Z,15.45
2023-04-02T15:07:46.067Z,14.57
2023-04-02T15:10:26.905Z,14.55
2023-04-02T15:12:57.474Z,12.23
2023-04-02T15:15:40.054Z,11.63
2023-04-02T15:18:17.236Z,14.93
2023-04-02T15:21:14.795Z,11.70
2023-04-02T15:24:04.761Z,12.50
2023-04-02T15:27:24.511Z,14.35
2023-04-02T15:30:35.498Z,10.95
2023-04-02T15:33:24.972Z,13.90
2023-04-02T15:36:05.963Z,12.17
2023-04-02T15:38:59.268Z,13.85
2023-04-02T15:41:28.320Z,10.02
2023-04-02T15:44:00.738Z,11.48
2023-04-02T15:46:57.114Z,13.02
2023-04-02T15:49:40.873Z,14.47
2023-04-02T15:52:20.935Z,16.27
2023-04-02T15:55:05.459Z,12.35
2023-04-02T15:57:58.752Z,15.45
2023-04-02T16:00:37.055Z,15.60
2023-04-02T16:03:17.681Z,13.53
2023-04-02T16:06:17.489Z,17.17
2023-04-02T16:08:45.394Z,14.77
2023-04-02T16:11:15.784Z,11.43
2023-04-02T16:13:44.329Z,16.40
2023-04-02T16:16:34.593Z,21.03
2023-04-02T16:19:15.699Z,13.07
2023-04-02T16:21:51.639Z,17.98
2023-04-02T16:24:20.155Z,19.52
2023-04-02T16:26:48.057Z,18.42
2023-04-02T16:29:40.752Z,12.25
2023-04-02T16:32:53.942Z,15.10
2023-04-02T16:35:42.364Z,15.00
2023-04-02T16:38:37.431Z,17.63
2023-04-02T16:41:38.965Z,14.82
2023-04-02T16:44:38.093Z,15.90
2023-04-02T16:47:30.768Z,20.83
2023-04-02T16:50:21.565Z,19.63
2023-04-02T16:53:17.899Z,16.00
2023-04-02T16:56:05.661Z,18.85
2023-04-02T16:58:58.327Z,16.30
2023-04-02T17:01:49.395Z,16.10
2023-04-02T17:04:50.821Z,18.75
2023-04-02T17:07:44.732Z,23.58
2023-04-02T17:10:24.126Z,21.05
2023-04-02T17:12:57.485Z,21.55
2023-04-02T17:15:29.354Z,19.53
2023-04-02T17:18:00.719Z,17.23
2023-04-02T17:20:29.771Z,19.08
2023-04-02T17:22:58.042Z,22.10
2023-04-02T17:25:31.092Z,25.52
2023-04-02T17:27:59.116Z,16.90
2023-04-02T17:30:41.663Z,18.10
2023-04-02T17:33:15.140Z,17.63
2023-04-02T17:36:15.091Z,21.40
2023-04-02T17:39:17.114Z,29.52
2023-04-02T17:42:13.557Z,22.23
2023-04-02T17:44:49.743Z,18.13
2023-04-02T17:47:37.337Z,17.40
2023-04-02T17:50:38.676Z,17.23
2023-04-02T17:53:30.597Z,18.48
2023-04-02T17:56:17.834Z,18.13
2023-04-02T17:59:12.530Z,20.40
2023-04-02T18:01:55.129Z,16.48
2023-04-02T18:04:43.858Z,17.65
2023-04-02T18:07:50.552Z,20.40
2023-04-02T18:10:52.013Z,23.27
2023-04-02T18:13:57.227Z,22.35
2023-04-02T18:17:02.450Z,24.33
2023-04-02T18:19:36.317Z,13.85
2023-04-02T18:22:23.477Z,15.68
2023-04-02T18:25:35.015Z,20.40
2023-04-02T18:28:17.307Z,22.42
2023-04-02T18:30:53.043Z,23.55
2023-04-02T18:33:35.992Z,25.95
2023-04-02T18:36:28.693Z,28.40
2023-04-02T18:39:30.142Z,22.47
2023-04-02T18:42:19.129Z,15.57
2023-04-02T18:45:10.902Z,14.50
2023-04-02T18:48:02.144Z,14.15
2023-04-02T18:50:36.035Z,12.30
2023-04-02T18:53:20.143Z,18.17
2023-04-02T18:56:02.218Z,16.35
2023-04-02T18:59:15.046Z,13.77
2023-04-02T19:01:47.820Z,16.40
2023-04-02T19:04:28.970Z,17.40
2023-04-02T19:07:16.940Z,16.17
2023-04-02T19:09:48.685Z,18.70
2023-04-02T19:12:22.740Z,14.18
2023-04-02T19:14:52.511Z,19.00
2023-04-02T19:17:20.862Z,23.77
2023-04-02T19:20:07.607Z,19.60
2023-04-02T19:23:04.079Z,20.30
2023-04-02T19:25:58.512Z,19.05
2023-04-02T19:28:44.865Z,17.17
2023-04-02T19:31:31.305Z,17.08
2023-04-02T19:34:20.919Z,15.80
2023-04-02T19:36:58.004Z,14.98
2023-04-02T19:39:48.092Z,16.17
2023-04-02T19:42:34.924Z,15.60
2023-04-02T19:45:03.470Z,15.65
2023-04-02T19:47:31.563Z,17.73
2023-04-02T19:49:59.752Z,16.80
2023-04-02T19:52:27.758Z,17.95
2023-04-02T19:54:56.174Z,16.92
2023-04-02T19:57:24.549Z,20.77
2023-04-02T19:59:52.701Z,21.70
2023-04-02T20:02:20.783Z,17.65
2023-04-02T20:04:49.093Z,24.70
2023-04-02T20:07:17.042Z,14.63
2023-04-02T20:09:45.060Z,22.33
2023-04-02T20:12:13.028Z,16.58
2023-04-02T20:14:41.069Z,19.00
2023-04-02T20:17:08.909Z,15.50
2023-04-02T20:19:37.408Z,22.17
2023-04-02T20:22:05.270Z,17.65
2023-04-02T20:24:33.375Z,18.48
2023-04-02T20:27:01.306Z,20.47
2023-04-02T20:29:31.083Z,15.48
2023-04-02T20:31:58.993Z,21.40
2023-04-02T20:34:27.089Z,18.23
2023-04-02T20:36:55.231Z,19.42
2023-04-02T20:39:23.298Z,18.40
2023-04-02T20:41:51.606Z,16.42
2023-04-02T20:44:19.556Z,14.93
2023-04-02T20:46:47.880Z,15.00
2023-04-02T20:49:16.216Z,17.00
2023-04-02T20:51:44.262Z,17.10
2023-04-02T20:54:12.637Z,16.90
2023-04-02T20:56:40.699Z,10.27
2023-04-02T20:59:08.435Z,11.00
2023-04-02T21:01:36.622Z,7.95
2023-04-02T21:04:04.621Z,9.15
2023-04-02T21:06:36.711Z,9.33
2023-04-02T21:09:08.431Z,7.85
2023-04-02T21:11:37.564Z,8.18
2023-04-02T21:14:05.767Z,5.38
2023-04-02T21:16:34.291Z,4.93
2023-04-02T21:19:05.691Z,6.77
2023-04-02T21:21:35.753Z,6.93
2023-04-02T21:24:06.946Z,5.43
2023-04-02T21:26:37.770Z,6.72
2023-04-02T21:29:06.529Z,7.22
2023-04-02T21:31:39.882Z,5.27
2023-04-02T21:34:10.039Z,5.55
2023-04-02T21:36:41.659Z,8.57
2023-04-02T21:39:12.938Z,4.25
2023-04-02T21:41:43.956Z,4.13
2023-04-02T21:44:15.779Z,4.90
2023-04-02T21:46:44.876Z,4.05
2023-04-02T21:49:15.828Z,3.33
2023-04-02T21:51:46.301Z,4.07
2023-04-02T21:54:15.508Z,3.28
2023-04-02T21:56:46.017Z,5.67
2023-04-02T21:59:15.860Z,4.03
2023-04-02T22:01:47.293Z,3.28
2023-04-02T22:04:26.884Z,4.15
2023-04-02T22:06:55.230Z,4.80
2023-04-02T22:09:25.542Z,4.83
2023-04-02T22:11:56.477Z,3.85
2023-04-02T22:14:24.727Z,3.70
2023-04-02T22:16:52.675Z,10.98
2023-04-02T22:19:21.167Z,3.67
2023-04-02T22:21:49.018Z,3.00
2023-04-02T22:24:27.357Z,5.05
2023-04-02T22:26:55.405Z,4.97
2023-04-02T22:29:23.497Z,5.13
2023-04-02T22:31:51.492Z,4.07
2023-04-02T22:34:19.279Z,4.10
2023-04-02T22:36:47.722Z,4.13
2023-04-02T22:39:17.286Z,4.50
2023-04-02T22:41:45.148Z,3.70
2023-04-02T22:44:16.430Z,3.70
2023-04-02T22:46:44.928Z,4.53
2023-04-02T22:49:12.764Z,3.97
2023-04-02T22:51:40.896Z,4.00
2023-04-02T22:54:08.770Z,4.82
2023-04-02T22:56:37.814Z,4.38
2023-04-02T22:59:06.354Z,5.37
2023-04-02T23:01:36.002Z,6.43
2023-04-02T23:04:05.602Z,9.98
2023-04-02T23:06:33.946Z,11.80
2023-04-02T23:09:02.267Z,11.38
2023-04-02T23:11:30.636Z,22.97
2023-04-02T23:13:59.249Z,20.88
2023-04-02T23:16:29.852Z,17.50
2023-04-02T23:18:58.691Z,15.52
2023-04-02T23:21:26.878Z,12.75
2023-04-02T23:23:55.329Z,9.57
2023-04-02T23:26:29.803Z,12.40
2023-04-02T23:28:59.453Z,7.32
2023-04-02T23:31:27.776Z,10.07
2023-04-02T23:33:56.239Z,13.70
2023-04-02T23:36:32.963Z,8.60
2023-04-02T23:39:09.679Z,11.07
2023-04-02T23:41:39.922Z,14.95
2023-04-02T23:44:09.413Z,15.60
2023-04-02T23:46:37.396Z,12.45
2023-04-02T23:49:05.493Z,15.73
2023-04-02T23:51:33.553Z,13.05
2023-04-02T23:54:01.371Z,16.95
2023-04-02T23:56:29.280Z,15.10
2023-04-02T23:58:57.205Z,15.57
